Aérodrome :
LOGIN :

S'inscrire | Disclaimer

   EN    FR    IT 

 










Légende :    VFR   VFR Marginal   IFR   IFR Intensif   IFR Très Intensif
Visi : 
Plafond : 
>= 8 km
>= 3000ft
5 à 8 km
1000 à 3000 ft
1500m à 5 km
500 à 1000 ft
800 à 1500m
200 à 500 ft
< 800m
< 200 ft
Symboles :   Orages  Brouillard  Fortes neiges  Fortes précipitations  Vent > 20 kt
SIGMETs :   Divers  Orages  Givrage  Turbulence  Onde Orograph.  Cendres Volcan.






- Altitude de l'aérodrome : 76 ft
- Code IATA : KID


ESMK - Kristianstad

DERNIER METAR :
  • 211550Z 25010KT 9999 BKN043 07/02 Q1013

METARs EXPIRÉS :
  • 211520Z 23012KT 9999 FEW032 SCT046 07/02 Q1012
  • 211450Z 25010KT 9999 SCT034 BKN048 07/02 Q1012
  • 211420Z 25013KT 220V280 9999 SCT033 BKN051 08/02 Q1012
  • 211350Z 25011KT 220V290 9999 SCT033 BKN051 08/02 Q1012
  • 211320Z 26012KT 9999 SCT040 SCT051 08/01 Q1012

TAF TAF ESMK
Valide du 21 à 15h jusqu'au 21 à 20h UTC


211411Z 2115/2120 26012KT 9999 BKN020
TEMPO 2115/2120 24015G28KT
BECMG 2118/2120 BKN012



MET'MAP, la Météo Aéronautique d'un coup d'oeil ! - Copyright ORBIFLY Décembre 2007 - Disclaimer

ORBIFLY MET'MAP TEAM :

Programmation & Développement : Alexandra Zaïnal
Sur une idée originale de : Baudouin d'Aumeries
Assistance à la programmation : Marc-Olivier Méhu
Soutien technique & logistique : Manuel Goepfert

Contact : metmap@orbifly.com




SOURCES & CREDITS :

   NOAA